Asherville, Indiana
Current Conditions -  °F | °C
As of 9:37 PM on Sunday 23 Nov 2014 (Local Time) from KHUF Reporting Station
Light Rain Light Rain  
Wind Chill: 52°   Ceiling: 1600
Heat Index: 52°   Visibility: 5mi
Dew Point: 51°   Wind: 3mph
Humidity: 97%   Direction: 100°E
Pressure: 29.2"   Gusts: NA
Location:  39.5158°N, 87.1262°W
Report Text: KHUF 240237Z 10003KT 5SM -RA BR SCT005 OVC016 11/11 A2920 RMK AO2 P0011 T01110106 $
Loading
Personal Weather Stations






























Interactive Weather Map New forecast layout! Learn more

10-Day Weather Forecast

Advertisements
Track Severe Weather on mobile